sensor_id;sensor_type;location;lat;lon;timestamp;temperature;humidity
2825;DHT22;1420;51.324;12.344;2024-03-02T00:02:02;6.50;99.90
2825;DHT22;1420;51.324;12.344;2024-03-02T00:04:29;6.50;99.90
2825;DHT22;1420;51.324;12.344;2024-03-02T00:06:57;6.40;99.90
2825;DHT22;1420;51.324;12.344;2024-03-02T00:09:24;6.50;99.90
2825;DHT22;1420;51.324;12.344;2024-03-02T00:11:52;6.50;99.90
2825;DHT22;1420;51.324;12.344;2024-03-02T00:14:19;6.50;99.90
2825;DHT22;1420;51.324;12.344;2024-03-02T00:16:46;6.50;99.90
2825;DHT22;1420;51.324;12.344;2024-03-02T00:19:13;6.40;99.90
2825;DHT22;1420;51.324;12.344;2024-03-02T00:21:40;6.40;99.90
2825;DHT22;1420;51.324;12.344;2024-03-02T00:24:17;6.50;99.90
2825;DHT22;1420;51.324;12.344;2024-03-02T00:26:39;6.40;99.90
2825;DHT22;1420;51.324;12.344;2024-03-02T00:29:07;6.40;99.90
2825;DHT22;1420;51.324;12.344;2024-03-02T00:31:34;6.40;99.90
2825;DHT22;1420;51.324;12.344;2024-03-02T00:34:01;6.50;99.90
2825;DHT22;1420;51.324;12.344;2024-03-02T00:36:28;6.40;99.90
2825;DHT22;1420;51.324;12.344;2024-03-02T00:38:55;6.50;99.90
2825;DHT22;1420;51.324;12.344;2024-03-02T00:41:24;6.40;99.90
2825;DHT22;1420;51.324;12.344;2024-03-02T00:43:58;6.50;99.90
2825;DHT22;1420;51.324;12.344;2024-03-02T00:46:26;6.40;99.90
2825;DHT22;1420;51.324;12.344;2024-03-02T00:48:55;6.50;99.90
2825;DHT22;1420;51.324;12.344;2024-03-02T00:51:22;6.50;99.90
2825;DHT22;1420;51.324;12.344;2024-03-02T00:53:49;6.50;99.90
2825;DHT22;1420;51.324;12.344;2024-03-02T00:56:16;6.40;99.90
2825;DHT22;1420;51.324;12.344;2024-03-02T00:58:43;6.50;99.90
2825;DHT22;1420;51.324;12.344;2024-03-02T01:01:10;6.50;99.90
2825;DHT22;1420;51.324;12.344;2024-03-02T01:03:37;6.40;99.90
2825;DHT22;1420;51.324;12.344;2024-03-02T01:06:05;6.50;99.90
2825;DHT22;1420;51.324;12.344;2024-03-02T01:08:32;6.50;99.90
2825;DHT22;1420;51.324;12.344;2024-03-02T01:10:59;6.40;99.90
2825;DHT22;1420;51.324;12.344;2024-03-02T01:13:27;6.40;99.90
2825;DHT22;1420;51.324;12.344;2024-03-02T01:15:55;6.40;99.90
2825;DHT22;1420;51.324;12.344;2024-03-02T01:18:22;6.30;99.90
2825;DHT22;1420;51.324;12.344;2024-03-02T01:20:49;6.40;99.90
2825;DHT22;1420;51.324;12.344;2024-03-02T01:23:19;6.40;99.90
2825;DHT22;1420;51.324;12.344;2024-03-02T01:25:46;6.30;99.90
2825;DHT22;1420;51.324;12.344;2024-03-02T01:28:14;6.30;99.90
2825;DHT22;1420;51.324;12.344;2024-03-02T01:30:41;6.30;99.90
2825;DHT22;1420;51.324;12.344;2024-03-02T01:33:08;6.30;99.90
2825;DHT22;1420;51.324;12.344;2024-03-02T01:35:35;6.30;99.90
2825;DHT22;1420;51.324;12.344;2024-03-02T01:38:02;6.30;99.90
2825;DHT22;1420;51.324;12.344;2024-03-02T01:40:29;6.30;99.90
2825;DHT22;1420;51.324;12.344;2024-03-02T01:42:57;6.30;99.90
2825;DHT22;1420;51.324;12.344;2024-03-02T01:45:25;6.30;99.90
2825;DHT22;1420;51.324;12.344;2024-03-02T01:47:52;6.30;99.90
2825;DHT22;1420;51.324;12.344;2024-03-02T01:50:27;6.30;99.90
2825;DHT22;1420;51.324;12.344;2024-03-02T01:52:54;6.30;99.90
2825;DHT22;1420;51.324;12.344;2024-03-02T01:55:21;6.30;99.90
2825;DHT22;1420;51.324;12.344;2024-03-02T01:57:48;6.30;99.90
2825;DHT22;1420;51.324;12.344;2024-03-02T02:00:15;6.40;99.90
2825;DHT22;1420;51.324;12.344;2024-03-02T02:02:43;6.40;99.90
2825;DHT22;1420;51.324;12.344;2024-03-02T02:05:11;6.40;99.90
2825;DHT22;1420;51.324;12.344;2024-03-02T02:07:39;6.40;99.90
2825;DHT22;1420;51.324;12.344;2024-03-02T02:10:06;6.40;99.90
2825;DHT22;1420;51.324;12.344;2024-03-02T02:12:33;6.40;99.90
2825;DHT22;1420;51.324;12.344;2024-03-02T02:15:00;6.40;99.90
2825;DHT22;1420;51.324;12.344;2024-03-02T02:17:27;6.40;99.90
2825;DHT22;1420;51.324;12.344;2024-03-02T02:19:55;6.40;99.90
2825;DHT22;1420;51.324;12.344;2024-03-02T02:22:22;6.40;99.90
2825;DHT22;1420;51.324;12.344;2024-03-02T02:24:49;6.40;99.90
2825;DHT22;1420;51.324;12.344;2024-03-02T02:27:16;6.50;99.90
2825;DHT22;1420;51.324;12.344;2024-03-02T02:29:43;6.40;99.90
2825;DHT22;1420;51.324;12.344;2024-03-02T02:32:11;6.50;99.90
2825;DHT22;1420;51.324;12.344;2024-03-02T02:34:38;6.50;99.90
2825;DHT22;1420;51.324;12.344;2024-03-02T02:37:06;6.50;99.90
2825;DHT22;1420;51.324;12.344;2024-03-02T02:39:34;6.50;99.90
2825;DHT22;1420;51.324;12.344;2024-03-02T02:42:01;6.60;99.90
2825;DHT22;1420;51.324;12.344;2024-03-02T02:44:29;6.50;99.90
2825;DHT22;1420;51.324;12.344;2024-03-02T02:46:57;6.50;99.90
2825;DHT22;1420;51.324;12.344;2024-03-02T02:49:24;6.50;99.90
2825;DHT22;1420;51.324;12.344;2024-03-02T02:51:52;6.50;99.90
2825;DHT22;1420;51.324;12.344;2024-03-02T02:54:20;6.50;99.90
2825;DHT22;1420;51.324;12.344;2024-03-02T02:56:48;6.50;99.90
2825;DHT22;1420;51.324;12.344;2024-03-02T02:59:15;6.50;99.90
2825;DHT22;1420;51.324;12.344;2024-03-02T03:01:42;6.50;99.90
2825;DHT22;1420;51.324;12.344;2024-03-02T03:04:09;6.50;99.90
2825;DHT22;1420;51.324;12.344;2024-03-02T03:06:36;6.50;99.90
2825;DHT22;1420;51.324;12.344;2024-03-02T03:09:04;6.50;99.90
2825;DHT22;1420;51.324;12.344;2024-03-02T03:11:31;6.50;99.90
2825;DHT22;1420;51.324;12.344;2024-03-02T03:13:58;6.50;99.90
2825;DHT22;1420;51.324;12.344;2024-03-02T03:16:25;6.50;99.90
2825;DHT22;1420;51.324;12.344;2024-03-02T03:18:52;6.50;99.90
2825;DHT22;1420;51.324;12.344;2024-03-02T03:21:20;6.50;99.90
2825;DHT22;1420;51.324;12.344;2024-03-02T03:23:47;6.50;99.90
2825;DHT22;1420;51.324;12.344;2024-03-02T03:26:14;6.60;99.90
2825;DHT22;1420;51.324;12.344;2024-03-02T03:28:41;6.60;99.90
2825;DHT22;1420;51.324;12.344;2024-03-02T03:31:08;6.60;99.90
2825;DHT22;1420;51.324;12.344;2024-03-02T03:33:36;6.60;99.90
2825;DHT22;1420;51.324;12.344;2024-03-02T03:36:03;6.60;99.90
2825;DHT22;1420;51.324;12.344;2024-03-02T03:38:30;6.60;99.90
2825;DHT22;1420;51.324;12.344;2024-03-02T03:40:57;6.60;99.90
2825;DHT22;1420;51.324;12.344;2024-03-02T03:43:25;6.60;99.90
2825;DHT22;1420;51.324;12.344;2024-03-02T03:45:52;6.60;99.90
2825;DHT22;1420;51.324;12.344;2024-03-02T03:48:19;6.60;99.90
2825;DHT22;1420;51.324;12.344;2024-03-02T03:50:46;6.70;99.90
2825;DHT22;1420;51.324;12.344;2024-03-02T03:53:14;6.60;99.90
2825;DHT22;1420;51.324;12.344;2024-03-02T03:55:41;6.60;99.90
2825;DHT22;1420;51.324;12.344;2024-03-02T03:58:08;6.60;99.90
2825;DHT22;1420;51.324;12.344;2024-03-02T04:00:35;6.60;99.90
2825;DHT22;1420;51.324;12.344;2024-03-02T04:03:03;6.50;99.90
2825;DHT22;1420;51.324;12.344;2024-03-02T04:05:30;6.50;99.90
2825;DHT22;1420;51.324;12.344;2024-03-02T04:07:57;6.50;99.90
2825;DHT22;1420;51.324;12.344;2024-03-02T04:10:24;6.50;99.90
2825;DHT22;1420;51.324;12.344;2024-03-02T04:12:51;6.50;99.90
2825;DHT22;1420;51.324;12.344;2024-03-02T04:15:19;6.40;99.90
2825;DHT22;1420;51.324;12.344;2024-03-02T04:17:46;6.40;99.90
2825;DHT22;1420;51.324;12.344;2024-03-02T04:20:13;6.40;99.90
2825;DHT22;1420;51.324;12.344;2024-03-02T04:22:40;6.40;99.90
2825;DHT22;1420;51.324;12.344;2024-03-02T04:25:08;6.40;99.90
2825;DHT22;1420;51.324;12.344;2024-03-02T04:27:35;6.40;99.90
2825;DHT22;1420;51.324;12.344;2024-03-02T04:30:03;6.40;99.90
2825;DHT22;1420;51.324;12.344;2024-03-02T04:32:30;6.40;99.90
2825;DHT22;1420;51.324;12.344;2024-03-02T04:34:57;6.30;99.90
2825;DHT22;1420;51.324;12.344;2024-03-02T04:37:24;6.30;99.90
2825;DHT22;1420;51.324;12.344;2024-03-02T04:39:51;6.30;99.90
2825;DHT22;1420;51.324;12.344;2024-03-02T04:42:18;6.30;99.90
2825;DHT22;1420;51.324;12.344;2024-03-02T04:44:46;6.30;99.90
2825;DHT22;1420;51.324;12.344;2024-03-02T04:47:13;6.40;99.90
2825;DHT22;1420;51.324;12.344;2024-03-02T04:49:40;6.30;99.90
2825;DHT22;1420;51.324;12.344;2024-03-02T04:52:07;6.30;99.90
2825;DHT22;1420;51.324;12.344;2024-03-02T04:54:34;6.40;99.90
2825;DHT22;1420;51.324;12.344;2024-03-02T04:57:02;6.40;99.90
2825;DHT22;1420;51.324;12.344;2024-03-02T04:59:29;6.40;99.90
2825;DHT22;1420;51.324;12.344;2024-03-02T05:01:56;6.40;99.90
2825;DHT22;1420;51.324;12.344;2024-03-02T05:04:24;6.40;99.90
2825;DHT22;1420;51.324;12.344;2024-03-02T05:06:51;6.40;99.90
2825;DHT22;1420;51.324;12.344;2024-03-02T05:09:18;6.40;99.90
2825;DHT22;1420;51.324;12.344;2024-03-02T05:11:45;6.30;99.90
2825;DHT22;1420;51.324;12.344;2024-03-02T05:14:20;6.30;99.90
2825;DHT22;1420;51.324;12.344;2024-03-02T05:16:47;6.30;99.90
2825;DHT22;1420;51.324;12.344;2024-03-02T05:19:14;6.40;99.90
2825;DHT22;1420;51.324;12.344;2024-03-02T05:21:42;6.40;99.90
2825;DHT22;1420;51.324;12.344;2024-03-02T05:24:09;6.40;99.90
2825;DHT22;1420;51.324;12.344;2024-03-02T05:26:36;6.40;99.90
2825;DHT22;1420;51.324;12.344;2024-03-02T05:29:03;6.30;99.90
2825;DHT22;1420;51.324;12.344;2024-03-02T05:31:30;6.30;99.90
2825;DHT22;1420;51.324;12.344;2024-03-02T05:33:58;6.30;99.90
2825;DHT22;1420;51.324;12.344;2024-03-02T05:36:25;6.30;99.90
2825;DHT22;1420;51.324;12.344;2024-03-02T05:38:52;6.30;99.90
2825;DHT22;1420;51.324;12.344;2024-03-02T05:41:19;6.30;99.90
2825;DHT22;1420;51.324;12.344;2024-03-02T05:43:46;6.30;99.90
2825;DHT22;1420;51.324;12.344;2024-03-02T05:46:14;6.30;99.90
2825;DHT22;1420;51.324;12.344;2024-03-02T05:48:41;6.30;99.90
2825;DHT22;1420;51.324;12.344;2024-03-02T05:51:08;6.30;99.90
2825;DHT22;1420;51.324;12.344;2024-03-02T05:53:35;6.30;99.90
2825;DHT22;1420;51.324;12.344;2024-03-02T05:56:02;6.30;99.90
2825;DHT22;1420;51.324;12.344;2024-03-02T05:58:30;6.40;99.90
2825;DHT22;1420;51.324;12.344;2024-03-02T06:01:13;6.50;99.90
2825;DHT22;1420;51.324;12.344;2024-03-02T06:03:41;6.40;99.90
2825;DHT22;1420;51.324;12.344;2024-03-02T06:06:08;6.40;99.90
2825;DHT22;1420;51.324;12.344;2024-03-02T06:08:35;6.40;99.90
2825;DHT22;1420;51.324;12.344;2024-03-02T06:11:02;6.50;99.90
2825;DHT22;1420;51.324;12.344;2024-03-02T06:13:30;6.50;99.90
2825;DHT22;1420;51.324;12.344;2024-03-02T06:15:58;6.50;99.90
2825;DHT22;1420;51.324;12.344;2024-03-02T06:18:26;6.50;99.90
2825;DHT22;1420;51.324;12.344;2024-03-02T06:20:53;6.50;99.90
2825;DHT22;1420;51.324;12.344;2024-03-02T06:23:21;6.50;99.90
2825;DHT22;1420;51.324;12.344;2024-03-02T06:25:48;6.60;99.90
2825;DHT22;1420;51.324;12.344;2024-03-02T06:28:15;6.60;99.90
2825;DHT22;1420;51.324;12.344;2024-03-02T06:30:42;6.60;99.90
2825;DHT22;1420;51.324;12.344;2024-03-02T06:33:10;6.60;99.90
2825;DHT22;1420;51.324;12.344;2024-03-02T06:35:37;6.70;99.90
2825;DHT22;1420;51.324;12.344;2024-03-02T06:38:04;6.70;99.90
2825;DHT22;1420;51.324;12.344;2024-03-02T06:40:32;6.70;99.90
2825;DHT22;1420;51.324;12.344;2024-03-02T06:42:59;6.70;99.90
2825;DHT22;1420;51.324;12.344;2024-03-02T06:45:26;6.70;99.90
2825;DHT22;1420;51.324;12.344;2024-03-02T06:47:53;6.70;99.90
2825;DHT22;1420;51.324;12.344;2024-03-02T06:50:21;6.80;99.90
2825;DHT22;1420;51.324;12.344;2024-03-02T06:52:48;6.80;99.90
2825;DHT22;1420;51.324;12.344;2024-03-02T06:55:15;6.90;99.90
2825;DHT22;1420;51.324;12.344;2024-03-02T06:57:42;7.00;99.90
2825;DHT22;1420;51.324;12.344;2024-03-02T07:00:11;7.00;99.90
2825;DHT22;1420;51.324;12.344;2024-03-02T07:02:39;7.10;99.90
2825;DHT22;1420;51.324;12.344;2024-03-02T07:05:06;7.00;99.90
2825;DHT22;1420;51.324;12.344;2024-03-02T07:07:34;7.20;99.90
2825;DHT22;1420;51.324;12.344;2024-03-02T07:10:01;7.10;99.90
2825;DHT22;1420;51.324;12.344;2024-03-02T07:12:28;7.20;99.90
2825;DHT22;1420;51.324;12.344;2024-03-02T07:14:55;7.20;99.90
2825;DHT22;1420;51.324;12.344;2024-03-02T07:17:38;7.20;99.90
2825;DHT22;1420;51.324;12.344;2024-03-02T07:20:06;7.20;99.90
2825;DHT22;1420;51.324;12.344;2024-03-02T07:22:34;7.20;99.90
2825;DHT22;1420;51.324;12.344;2024-03-02T07:25:01;7.20;99.90
2825;DHT22;1420;51.324;12.344;2024-03-02T07:27:28;7.20;99.90
2825;DHT22;1420;51.324;12.344;2024-03-02T07:29:56;7.20;99.90
2825;DHT22;1420;51.324;12.344;2024-03-02T07:32:23;7.20;99.90
2825;DHT22;1420;51.324;12.344;2024-03-02T07:34:51;7.30;99.90
2825;DHT22;1420;51.324;12.344;2024-03-02T07:37:19;7.30;99.90
2825;DHT22;1420;51.324;12.344;2024-03-02T07:39:47;7.30;99.90
2825;DHT22;1420;51.324;12.344;2024-03-02T07:42:14;7.30;99.90
2825;DHT22;1420;51.324;12.344;2024-03-02T07:44:41;7.50;99.90
2825;DHT22;1420;51.324;12.344;2024-03-02T07:47:09;8.40;99.90
2825;DHT22;1420;51.324;12.344;2024-03-02T07:49:37;8.70;99.90
2825;DHT22;1420;51.324;12.344;2024-03-02T07:52:05;8.80;99.90
2825;DHT22;1420;51.324;12.344;2024-03-02T07:54:33;9.00;99.90
2825;DHT22;1420;51.324;12.344;2024-03-02T07:57:01;9.40;99.90
2825;DHT22;1420;51.324;12.344;2024-03-02T07:59:29;9.20;99.90
2825;DHT22;1420;51.324;12.344;2024-03-02T08:01:56;9.20;99.90
2825;DHT22;1420;51.324;12.344;2024-03-02T08:04:24;9.10;99.90
2825;DHT22;1420;51.324;12.344;2024-03-02T08:06:51;8.90;99.90
2825;DHT22;1420;51.324;12.344;2024-03-02T08:09:19;8.40;99.90
2825;DHT22;1420;51.324;12.344;2024-03-02T08:11:47;8.20;99.90
2825;DHT22;1420;51.324;12.344;2024-03-02T08:14:14;8.20;99.90
2825;DHT22;1420;51.324;12.344;2024-03-02T08:16:41;8.20;99.90
2825;DHT22;1420;51.324;12.344;2024-03-02T08:19:09;8.20;99.90
2825;DHT22;1420;51.324;12.344;2024-03-02T08:21:36;8.20;99.90
2825;DHT22;1420;51.324;12.344;2024-03-02T08:24:03;8.20;99.90
2825;DHT22;1420;51.324;12.344;2024-03-02T08:26:30;8.30;99.90
2825;DHT22;1420;51.324;12.344;2024-03-02T08:28:58;8.30;99.90
2825;DHT22;1420;51.324;12.344;2024-03-02T08:31:25;8.40;99.90
2825;DHT22;1420;51.324;12.344;2024-03-02T08:33:52;8.40;99.90
2825;DHT22;1420;51.324;12.344;2024-03-02T08:36:20;8.50;99.90
2825;DHT22;1420;51.324;12.344;2024-03-02T08:38:48;8.50;99.90
2825;DHT22;1420;51.324;12.344;2024-03-02T08:41:14;8.50;99.90
2825;DHT22;1420;51.324;12.344;2024-03-02T08:43:42;8.60;99.90
2825;DHT22;1420;51.324;12.344;2024-03-02T08:46:09;8.50;99.90
2825;DHT22;1420;51.324;12.344;2024-03-02T08:48:36;8.60;99.90
2825;DHT22;1420;51.324;12.344;2024-03-02T08:51:03;8.60;99.90
2825;DHT22;1420;51.324;12.344;2024-03-02T08:53:31;8.70;99.90
2825;DHT22;1420;51.324;12.344;2024-03-02T08:55:58;8.80;99.90
2825;DHT22;1420;51.324;12.344;2024-03-02T08:58:25;9.00;99.90
2825;DHT22;1420;51.324;12.344;2024-03-02T09:00:52;9.20;99.90
2825;DHT22;1420;51.324;12.344;2024-03-02T09:03:19;9.10;99.90
2825;DHT22;1420;51.324;12.344;2024-03-02T09:05:47;9.10;99.90
2825;DHT22;1420;51.324;12.344;2024-03-02T09:08:14;9.30;99.90
2825;DHT22;1420;51.324;12.344;2024-03-02T09:10:41;9.40;99.90
2825;DHT22;1420;51.324;12.344;2024-03-02T09:13:08;9.60;99.90
2825;DHT22;1420;51.324;12.344;2024-03-02T09:15:35;9.60;99.90
2825;DHT22;1420;51.324;12.344;2024-03-02T09:18:03;9.80;99.90
2825;DHT22;1420;51.324;12.344;2024-03-02T09:20:30;9.90;99.90
2825;DHT22;1420;51.324;12.344;2024-03-02T09:22:57;9.90;99.90
2825;DHT22;1420;51.324;12.344;2024-03-02T09:25:25;10.00;99.90
2825;DHT22;1420;51.324;12.344;2024-03-02T09:27:53;10.00;99.90
2825;DHT22;1420;51.324;12.344;2024-03-02T09:30:20;10.00;99.90
2825;DHT22;1420;51.324;12.344;2024-03-02T09:32:48;10.10;99.90
2825;DHT22;1420;51.324;12.344;2024-03-02T09:35:16;10.30;99.90
2825;DHT22;1420;51.324;12.344;2024-03-02T09:37:43;10.20;99.90
2825;DHT22;1420;51.324;12.344;2024-03-02T09:40:10;10.20;99.90
2825;DHT22;1420;51.324;12.344;2024-03-02T09:42:38;10.30;99.90
2825;DHT22;1420;51.324;12.344;2024-03-02T09:45:05;10.20;99.90
2825;DHT22;1420;51.324;12.344;2024-03-02T09:47:32;10.10;99.90
2825;DHT22;1420;51.324;12.344;2024-03-02T09:50:00;10.20;99.90
2825;DHT22;1420;51.324;12.344;2024-03-02T09:52:27;10.30;99.90
2825;DHT22;1420;51.324;12.344;2024-03-02T09:54:54;10.20;99.90
2825;DHT22;1420;51.324;12.344;2024-03-02T09:57:21;10.30;99.90
2825;DHT22;1420;51.324;12.344;2024-03-02T09:59:48;10.30;99.90
2825;DHT22;1420;51.324;12.344;2024-03-02T10:02:16;10.30;99.90
2825;DHT22;1420;51.324;12.344;2024-03-02T10:04:43;10.30;99.90
2825;DHT22;1420;51.324;12.344;2024-03-02T10:07:18;10.50;99.90
2825;DHT22;1420;51.324;12.344;2024-03-02T10:09:45;10.70;99.90
2825;DHT22;1420;51.324;12.344;2024-03-02T10:12:13;10.80;99.90
2825;DHT22;1420;51.324;12.344;2024-03-02T10:14:39;10.90;99.90
2825;DHT22;1420;51.324;12.344;2024-03-02T10:17:07;11.10;99.90
2825;DHT22;1420;51.324;12.344;2024-03-02T10:19:34;11.40;99.90
2825;DHT22;1420;51.324;12.344;2024-03-02T10:22:01;11.60;99.90
2825;DHT22;1420;51.324;12.344;2024-03-02T10:24:34;11.90;99.90
2825;DHT22;1420;51.324;12.344;2024-03-02T10:26:55;12.10;99.90
2825;DHT22;1420;51.324;12.344;2024-03-02T10:29:23;12.60;99.90
2825;DHT22;1420;51.324;12.344;2024-03-02T10:31:50;13.00;99.90
2825;DHT22;1420;51.324;12.344;2024-03-02T10:34:17;13.00;99.90
2825;DHT22;1420;51.324;12.344;2024-03-02T10:36:44;13.60;99.90
2825;DHT22;1420;51.324;12.344;2024-03-02T10:39:13;14.20;99.90
2825;DHT22;1420;51.324;12.344;2024-03-02T10:41:40;14.40;99.90
2825;DHT22;1420;51.324;12.344;2024-03-02T10:44:08;13.90;99.90
2825;DHT22;1420;51.324;12.344;2024-03-02T10:46:35;13.70;99.90
2825;DHT22;1420;51.324;12.344;2024-03-02T10:49:02;13.70;99.90
2825;DHT22;1420;51.324;12.344;2024-03-02T10:51:29;14.10;99.90
2825;DHT22;1420;51.324;12.344;2024-03-02T10:53:56;14.10;99.90
2825;DHT22;1420;51.324;12.344;2024-03-02T10:56:28;14.10;99.90
2825;DHT22;1420;51.324;12.344;2024-03-02T10:59:17;13.90;99.90
2825;DHT22;1420;51.324;12.344;2024-03-02T11:01:47;14.10;99.90
2825;DHT22;1420;51.324;12.344;2024-03-02T11:04:16;14.10;99.90
2825;DHT22;1420;51.324;12.344;2024-03-02T11:06:47;13.90;99.90
2825;DHT22;1420;51.324;12.344;2024-03-02T11:09:12;14.10;99.90
2825;DHT22;1420;51.324;12.344;2024-03-02T11:11:40;14.00;99.90
2825;DHT22;1420;51.324;12.344;2024-03-02T11:14:07;13.80;99.90
2825;DHT22;1420;51.324;12.344;2024-03-02T11:16:36;13.90;99.90
2825;DHT22;1420;51.324;12.344;2024-03-02T11:19:05;14.20;99.90
2825;DHT22;1420;51.324;12.344;2024-03-02T11:21:33;14.10;99.90
2825;DHT22;1420;51.324;12.344;2024-03-02T11:23:59;14.10;99.90
2825;DHT22;1420;51.324;12.344;2024-03-02T11:26:27;14.10;99.90
2825;DHT22;1420;51.324;12.344;2024-03-02T11:28:54;13.90;99.90
2825;DHT22;1420;51.324;12.344;2024-03-02T11:31:21;14.20;99.90
2825;DHT22;1420;51.324;12.344;2024-03-02T11:33:48;14.40;99.90
2825;DHT22;1420;51.324;12.344;2024-03-02T11:36:15;14.30;99.90
2825;DHT22;1420;51.324;12.344;2024-03-02T11:38:43;14.60;99.90
2825;DHT22;1420;51.324;12.344;2024-03-02T11:41:10;14.60;99.90
2825;DHT22;1420;51.324;12.344;2024-03-02T11:43:37;14.80;99.90
2825;DHT22;1420;51.324;12.344;2024-03-02T11:46:05;14.70;99.90
2825;DHT22;1420;51.324;12.344;2024-03-02T11:48:31;14.90;99.90
2825;DHT22;1420;51.324;12.344;2024-03-02T11:50:59;14.40;99.90
2825;DHT22;1420;51.324;12.344;2024-03-02T11:53:28;14.40;99.90
2825;DHT22;1420;51.324;12.344;2024-03-02T11:55:55;14.40;99.90
2825;DHT22;1420;51.324;12.344;2024-03-02T11:58:23;14.40;99.90
2825;DHT22;1420;51.324;12.344;2024-03-02T12:00:51;14.60;99.90
2825;DHT22;1420;51.324;12.344;2024-03-02T12:03:18;14.50;99.90
2825;DHT22;1420;51.324;12.344;2024-03-02T12:05:45;14.50;99.90
2825;DHT22;1420;51.324;12.344;2024-03-02T12:08:12;14.60;99.90
2825;DHT22;1420;51.324;12.344;2024-03-02T12:10:39;14.40;99.90
2825;DHT22;1420;51.324;12.344;2024-03-02T12:13:07;14.40;99.90
2825;DHT22;1420;51.324;12.344;2024-03-02T12:15:35;14.40;99.90
2825;DHT22;1420;51.324;12.344;2024-03-02T12:18:01;14.50;99.90
2825;DHT22;1420;51.324;12.344;2024-03-02T12:20:29;14.50;99.90
2825;DHT22;1420;51.324;12.344;2024-03-02T12:22:58;14.40;99.90
2825;DHT22;1420;51.324;12.344;2024-03-02T12:25:23;14.50;99.90
2825;DHT22;1420;51.324;12.344;2024-03-02T12:27:51;14.70;99.90
2825;DHT22;1420;51.324;12.344;2024-03-02T12:30:17;14.60;99.90
2825;DHT22;1420;51.324;12.344;2024-03-02T12:32:45;14.70;99.90
2825;DHT22;1420;51.324;12.344;2024-03-02T12:35:12;14.40;99.90
2825;DHT22;1420;51.324;12.344;2024-03-02T12:37:45;14.30;99.90
2825;DHT22;1420;51.324;12.344;2024-03-02T12:40:12;14.50;99.90
2825;DHT22;1420;51.324;12.344;2024-03-02T12:42:39;14.40;99.90
2825;DHT22;1420;51.324;12.344;2024-03-02T12:45:06;14.40;99.90
2825;DHT22;1420;51.324;12.344;2024-03-02T12:47:34;14.40;99.90
2825;DHT22;1420;51.324;12.344;2024-03-02T12:50:04;14.20;99.90
2825;DHT22;1420;51.324;12.344;2024-03-02T12:52:32;14.00;99.90
2825;DHT22;1420;51.324;12.344;2024-03-02T12:55:00;14.00;99.90
2825;DHT22;1420;51.324;12.344;2024-03-02T12:57:28;14.00;99.90
2825;DHT22;1420;51.324;12.344;2024-03-02T12:59:59;14.00;99.90
2825;DHT22;1420;51.324;12.344;2024-03-02T13:02:28;14.20;99.90
2825;DHT22;1420;51.324;12.344;2024-03-02T13:05:00;14.30;99.90
2825;DHT22;1420;51.324;12.344;2024-03-02T13:07:28;14.20;99.90
2825;DHT22;1420;51.324;12.344;2024-03-02T13:09:56;14.30;99.90
2825;DHT22;1420;51.324;12.344;2024-03-02T13:12:24;14.10;99.90
2825;DHT22;1420;51.324;12.344;2024-03-02T13:14:52;14.00;99.90
2825;DHT22;1420;51.324;12.344;2024-03-02T13:17:19;14.10;99.90
2825;DHT22;1420;51.324;12.344;2024-03-02T13:19:55;14.10;99.90
2825;DHT22;1420;51.324;12.344;2024-03-02T13:22:22;14.00;99.90
2825;DHT22;1420;51.324;12.344;2024-03-02T13:24:49;13.80;99.90
2825;DHT22;1420;51.324;12.344;2024-03-02T13:27:16;13.70;99.90
2825;DHT22;1420;51.324;12.344;2024-03-02T13:29:44;13.80;99.90
2825;DHT22;1420;51.324;12.344;2024-03-02T13:32:10;13.90;99.90
2825;DHT22;1420;51.324;12.344;2024-03-02T13:34:38;14.10;99.90
2825;DHT22;1420;51.324;12.344;2024-03-02T13:37:05;14.10;99.90
2825;DHT22;1420;51.324;12.344;2024-03-02T13:39:32;13.90;99.90
2825;DHT22;1420;51.324;12.344;2024-03-02T13:41:59;13.90;99.90
2825;DHT22;1420;51.324;12.344;2024-03-02T13:44:27;14.10;99.90
2825;DHT22;1420;51.324;12.344;2024-03-02T13:46:54;14.00;99.90
2825;DHT22;1420;51.324;12.344;2024-03-02T13:49:21;14.10;99.90
2825;DHT22;1420;51.324;12.344;2024-03-02T13:51:49;14.20;99.90
2825;DHT22;1420;51.324;12.344;2024-03-02T13:54:16;14.50;99.90
2825;DHT22;1420;51.324;12.344;2024-03-02T13:56:43;14.30;99.90
2825;DHT22;1420;51.324;12.344;2024-03-02T13:59:10;14.30;99.90
2825;DHT22;1420;51.324;12.344;2024-03-02T14:01:37;14.30;99.90
2825;DHT22;1420;51.324;12.344;2024-03-02T14:04:05;14.30;99.90
2825;DHT22;1420;51.324;12.344;2024-03-02T14:06:32;14.30;99.90
2825;DHT22;1420;51.324;12.344;2024-03-02T14:08:59;14.20;99.90
2825;DHT22;1420;51.324;12.344;2024-03-02T14:11:27;14.10;99.90
2825;DHT22;1420;51.324;12.344;2024-03-02T14:13:55;14.00;99.90
2825;DHT22;1420;51.324;12.344;2024-03-02T14:16:22;14.00;99.90
2825;DHT22;1420;51.324;12.344;2024-03-02T14:18:49;14.00;99.90
2825;DHT22;1420;51.324;12.344;2024-03-02T14:21:17;14.10;99.90
2825;DHT22;1420;51.324;12.344;2024-03-02T14:23:45;13.90;99.90
2825;DHT22;1420;51.324;12.344;2024-03-02T14:26:13;13.80;99.90
2825;DHT22;1420;51.324;12.344;2024-03-02T14:28:40;13.90;99.90
2825;DHT22;1420;51.324;12.344;2024-03-02T14:31:09;13.90;99.90
2825;DHT22;1420;51.324;12.344;2024-03-02T14:33:36;13.80;99.90
2825;DHT22;1420;51.324;12.344;2024-03-02T14:36:04;13.80;99.90
2825;DHT22;1420;51.324;12.344;2024-03-02T14:38:31;13.80;99.90
2825;DHT22;1420;51.324;12.344;2024-03-02T14:40:59;13.80;99.90
2825;DHT22;1420;51.324;12.344;2024-03-02T14:43:27;13.70;99.90
2825;DHT22;1420;51.324;12.344;2024-03-02T14:45:54;13.70;99.90
2825;DHT22;1420;51.324;12.344;2024-03-02T14:48:21;13.80;99.90
2825;DHT22;1420;51.324;12.344;2024-03-02T14:50:50;13.90;99.90
2825;DHT22;1420;51.324;12.344;2024-03-02T14:53:17;13.90;99.90
2825;DHT22;1420;51.324;12.344;2024-03-02T14:55:45;13.80;99.90
2825;DHT22;1420;51.324;12.344;2024-03-02T14:58:13;13.70;99.90
2825;DHT22;1420;51.324;12.344;2024-03-02T15:00:41;13.70;99.90
2825;DHT22;1420;51.324;12.344;2024-03-02T15:03:08;13.70;99.90
2825;DHT22;1420;51.324;12.344;2024-03-02T15:05:35;13.70;99.90
2825;DHT22;1420;51.324;12.344;2024-03-02T15:08:03;13.60;99.90
2825;DHT22;1420;51.324;12.344;2024-03-02T15:10:30;13.50;99.90
2825;DHT22;1420;51.324;12.344;2024-03-02T15:12:57;13.50;99.90
2825;DHT22;1420;51.324;12.344;2024-03-02T15:15:24;13.40;99.90
2825;DHT22;1420;51.324;12.344;2024-03-02T15:17:51;13.40;99.90
2825;DHT22;1420;51.324;12.344;2024-03-02T15:20:19;13.30;99.90
2825;DHT22;1420;51.324;12.344;2024-03-02T15:22:46;13.20;99.90
2825;DHT22;1420;51.324;12.344;2024-03-02T15:25:13;13.20;99.90
2825;DHT22;1420;51.324;12.344;2024-03-02T15:27:42;13.20;99.90
2825;DHT22;1420;51.324;12.344;2024-03-02T15:30:09;13.10;99.90
2825;DHT22;1420;51.324;12.344;2024-03-02T15:32:36;13.20;99.90
2825;DHT22;1420;51.324;12.344;2024-03-02T15:35:05;13.10;99.90
2825;DHT22;1420;51.324;12.344;2024-03-02T15:37:31;13.10;99.90
2825;DHT22;1420;51.324;12.344;2024-03-02T15:39:58;13.10;99.90
2825;DHT22;1420;51.324;12.344;2024-03-02T15:42:26;13.00;99.90
2825;DHT22;1420;51.324;12.344;2024-03-02T15:44:53;13.00;99.90
2825;DHT22;1420;51.324;12.344;2024-03-02T15:47:20;13.00;99.90
2825;DHT22;1420;51.324;12.344;2024-03-02T15:49:47;13.00;99.90
2825;DHT22;1420;51.324;12.344;2024-03-02T15:52:16;13.00;99.90
2825;DHT22;1420;51.324;12.344;2024-03-02T15:54:49;12.90;99.90
2825;DHT22;1420;51.324;12.344;2024-03-02T15:57:22;12.90;99.90